Weather at Thule Air Base

Public forecast

Using degrees Celsius for public forecast. Weather courtesy of forecast.io.

Current aviation weather report (METAR) for Thule Air Base

Retrieved 2020/10/31 06:16 UTC (8 minutes ago):

BGTL 310616Z AUTO 16005KT 9999 -SN BKN028 OVC044 M07/M07 A2941 RMK AO2 SNB06 CIG 028V044 CIG 025 RWY26 SLP947 TSNO

Aviation forecast (TAF) for Thule Air Base

Forecast is more than 12 hours old.

Retrieved 2020/10/30 17:06 UTC (13 hours ago):

TAF BGTL 301700Z 3017/3123 10009KT 9999 BKN030 620308 QNH2940INS TEMPO 3018/3024 10010G15KT 8000 -SN OVC010 620108 BECMG 3108/3109 12015G25KT 9999 SCT015 BKN030 620308 520009 QNH2945INS BECMG 3117/3118 12010G15KT 9999 OVC030 620308 QNH2944INS TEMPO 3118/3123 8000 -SN OVC010 620108 TXM08/3017Z TNM10/3103Z LAST NO AMDS AFT 3019 NEXT 0210